Lawrence, MA

5:52 AM EST on January 31, 2015 (GMT -0500)
lawrence | Change Station
CLOSE
Current Station
Personal Weather Station
Location: Lawrence, MA
Elevation: 98 ft
Nearby Weather Stations

Elev 98 ft 42.72 °N, 71.15 °W | Updated 5 minutes ago

Light Snow
Light Snow
10.2 °F
Feels Like -6 °F
N
15.0
Wind Variable Wind from WNW
Gusts 17.0 mph

Today
High -- | Low -- °F
--% Chance of Precip.
Yesterday
High -- | Low -- °F
Precip. -- in
7:00 AM 4:56 PM
Waxing Gibbous, 89% visible
Pressure 29.81 in
Visibility 3.0 miles
Clouds Overcast 3300 ft
Windchill -6 °F
Dew Point 3 °F
Humidity 72%
Rainfall 0.00 in
Snow Depth Not available.
UV 0 out of 12
Pollen .10 out of 12
Air Quality Not available.
Flu Activity Not available.
SPECI KLWM 311011Z AUTO 31015G28KT 3SM -SN OVC033 M12/M18 A2981 RMK AO2 PK WND 30028/1009 P0000 T11221178

More Conditions Fewer Conditions

Pressure 29.81 in
Visibility 3.0 miles
Clouds Overcast 3300 ft
Windchill -6 °F
Dew Point 3 °F
Humidity 72%
Rainfall 0.00 in
Snow Depth Not available.
UV 0 out of 12
Pollen .10 out of 12
Air Quality Not available.
Flu Activity Not available.
SPECI KLWM 311011Z AUTO 31015G28KT 3SM -SN OVC033 M12/M18 A2981 RMK AO2 PK WND 30028/1009 P0000 T11221178

More Conditions Fewer Conditions

10-Day Weather Forecast

Almanac

Astronomy

Jan. 31, 2015 Rise Set
Actual Time
Civil Twilight
Nautical Twilight
Astronomical Twilight
Moon
Length of Visible Light
Length of Day
Tomorrow will be .
, % of the Moon is Illuminated

Today's Extremes

State Highs State Lows

Community

WunderPhotos

Upload Photos

1,792,031 photos uploaded!

WunderBlogs® & News

Nearby

Air Quality

  Air Quality AQ Index Pollutant
Not available.

Snow Depth

Station Depth Elevation

Earthquake Activity

City Distance Mag. Time & Date
Minimum magnitude displayed is 2.5.

Coastal Water Temperatures

Place Temperature

Nearby Weather Stations